Preview of NWS' New Version of Forecast
This preview is not operational and should not be used for support decisions.

Terminal Aerodrome Forecast (TAF)

Issued by National Weather Service (NWS)

                            
000
FTUS46 KSEW 191137
TAFBLI
TAF
KBLI 191137Z 1912/2012 18008KT P6SM OVC035
     FM192000 18008KT P6SM SCT035
     FM200000 18008KT P6SM SKC=